Sucinsk, Kazakhstan

11:05 AM ALMT on March 30, 2015 (GMT +0600)
Kokshetau Airport | | Change Station
CLOSE
Current Station
Airport
Location: Kokshetau Airport,
Elevation: 863 ft
Nearby Weather Stations

Elev 863 ft 53.32 °N, 69.58 °E | Updated 35 minutes ago

Clear
Clear
19 °F
Feels Like 9 °F
N
9
Wind Variable Wind from NW

Today
High -- | Low -- °F
--% Chance of Precip.
Yesterday
High -- | Low -- °F
Precip. -- in
6:59 AM 7:49 PM
Waxing Gibbous, 77% visible
Pressure 30.48 in
Visibility -9999.0 miles
Clouds
Windchill 9 °F
Dew Point 3 °F
Humidity 49%
Rainfall 0.00 in
Snow Depth Not available.
UV Not available.
Pollen Not available.
Air Quality Not available.
Flu Activity Not available.
METAR UACK 300430Z 31004MPS CAVOK M07/M16 Q1032 R02/010060 NOSIG RMK QFE749/0999

More Conditions Fewer Conditions

Pressure 30.48 in
Visibility -9999.0 miles
Clouds
Windchill 9 °F
Dew Point 3 °F
Humidity 49%
Rainfall 0.00 in
Snow Depth Not available.
UV Not available.
Pollen Not available.
Air Quality Not available.
Flu Activity Not available.
METAR UACK 300430Z 31004MPS CAVOK M07/M16 Q1032 R02/010060 NOSIG RMK QFE749/0999

More Conditions Fewer Conditions

10-Day Weather Forecast

Almanac

Astronomy

Mar. 30, 2015 Rise Set
Actual Time
Civil Twilight
Nautical Twilight
Astronomical Twilight
Moon
Length of Visible Light
Length of Day
Tomorrow will be .
, % of the Moon is Illuminated

Today's Extremes

Country Highs Country Lows

Community

WunderPhotos

Upload Photos

1,809,436 photos uploaded!

WunderBlogs® & News

Nearby

Air Quality

  Air Quality AQ Index Pollutant
Not available.

Snow Depth

Station Depth Elevation

Earthquake Activity

City Distance Mag. Time & Date
Minimum magnitude displayed is 2.5.

Coastal Water Temperatures

Place Temperature

Stations

Nearby Weather Stations

Station Location Temp. Windchill Dew Point Humidity Wind Precip. Elev Updated Type